| time (UTC) | temp F | wind direction | speed MPH | gust MPH | rain 1hr in | rain 24hr in | rain mn in | humidity % | barometer mb |
| 20260507123606 | 68 | 49 | 2.0 | 3.0 | 0.00 | 0.00 | 0.00 | 89 | 913.7 |
| 20260507123305 | 68 | 79 | 1.0 | 2.0 | 0.00 | 0.00 | 0.00 | 89 | 913.6 |
| 20260507123006 | 68 | 64 | 0.0 | 1.0 | 0.00 | 0.00 | 0.00 | 90 | 913.6 |
| 20260507122804 | 68 | 119 | 1.0 | 3.0 | 0.00 | 0.00 | 0.00 | 90 | 913.6 |
| 20260507122406 | 68 | 104 | 1.0 | 3.0 | 0.00 | 0.00 | 0.00 | 90 | 913.6 |
| 20260507121806 | 67 | 137 | 0.0 | 3.0 | 0.00 | 0.00 | 0.00 | 91 | 913.6 |
| 20260507121804 | 67 | 138 | 0.0 | 3.0 | 0.00 | 0.00 | 0.00 | 91 | 913.5 |
| 20260507121304 | 68 | 150 | 2.0 | 3.0 | 0.00 | 0.00 | 0.00 | 91 | 913.5 |
| 20260507121206 | 68 | 135 | 2.0 | 3.0 | 0.00 | 0.00 | 0.00 | 91 | 913.5 |
| 20260507120804 | 68 | 128 | 1.0 | 2.0 | 0.00 | 0.00 | 0.00 | 91 | 913.5 |
| 20260507120606 | 68 | 128 | 1.0 | 2.0 | 0.00 | 0.00 | 0.00 | 90 | 913.5 |
| 20260507120305 | 68 | 118 | 1.0 | 2.0 | 0.00 | 0.00 | 0.00 | 90 | 913.5 |
| 20260507120006 | 68 | 132 | 0.0 | 1.0 | 0.00 | 0.00 | 0.00 | 90 | 913.4 |
| 20260507115804 | 68 | 174 | 1.0 | 2.0 | 0.00 | 0.00 | 0.00 | 90 | 913.4 |
| 20260507115406 | 68 | 50 | 0.0 | 0.0 | 0.00 | 0.00 | 0.00 | 90 | 913.4 |
| 20260507115307 | 68 | 347 | 0.0 | 0.0 | 0.00 | 0.00 | 0.00 | 90 | 913.4 |
| 20260507114806 | 67 | 39 | 0.0 | 1.0 | 0.00 | 0.00 | 0.00 | 91 | 913.3 |
| 20260507114804 | 67 | 41 | 0.0 | 1.0 | 0.00 | 0.00 | 0.00 | 91 | 913.3 |
| 20260507114304 | 67 | 129 | 1.0 | 2.0 | 0.00 | 0.00 | 0.00 | 92 | 913.2 |
| 20260507114205 | 67 | 134 | 1.0 | 2.0 | 0.00 | 0.00 | 0.00 | 92 | 913.2 |
| 20260507112405 | 68 | 141 | 0.0 | 3.0 | 0.00 | 0.00 | 0.00 | 91 | 912.9 |
| 20260507112307 | 68 | 193 | 2.0 | 3.0 | 0.00 | 0.00 | 0.00 | 91 | 912.9 |
| 20260507111806 | 68 | 166 | 0.0 | 0.0 | 0.00 | 0.00 | 0.00 | 91 | 913.0 |
| 20260507111804 | 68 | 173 | 0.0 | 0.0 | 0.00 | 0.00 | 0.00 | 91 | 912.9 |
| 20260507110605 | 68 | 134 | 1.0 | 2.0 | 0.00 | 0.00 | 0.00 | 91 | 913.0 |
| 20260507110304 | 68 | 150 | 1.0 | 2.0 | 0.00 | 0.00 | 0.00 | 91 | 912.9 |
| 20260507110005 | 68 | 176 | 1.0 | 2.0 | 0.00 | 0.00 | 0.00 | 91 | 912.9 |
| 20260507105804 | 68 | 187 | 2.0 | 4.0 | 0.00 | 0.00 | 0.00 | 91 | 912.9 |
| 20260507105405 | 68 | 189 | 1.0 | 3.0 | 0.00 | 0.00 | 0.00 | 92 | 912.9 |
| 20260507104804 | 68 | 202 | 2.0 | 4.0 | 0.00 | 0.00 | 0.00 | 92 | 912.9 |
| 20260507104304 | 68 | 197 | 2.0 | 2.0 | 0.00 | 0.00 | 0.00 | 92 | 912.9 |
| 20260507104205 | 68 | 213 | 1.0 | 2.0 | 0.00 | 0.00 | 0.00 | 92 | 912.9 |
| 20260507103804 | 68 | 321 | 0.0 | 0.0 | 0.00 | 0.00 | 0.00 | 93 | 912.9 |
| 20260507103605 | 67 | 197 | 0.0 | 0.0 | 0.00 | 0.00 | 0.00 | 93 | 912.9 |
| 20260507103304 | 67 | 199 | 2.0 | 4.0 | 0.00 | 0.00 | 0.00 | 94 | 912.8 |
| 20260507103005 | 67 | 205 | 0.0 | 3.0 | 0.00 | 0.00 | 0.00 | 94 | 912.8 |
| 20260507102804 | 67 | 267 | 0.0 | 1.0 | 0.00 | 0.00 | 0.00 | 95 | 912.7 |
| 20260507102405 | 68 | 136 | 0.0 | 2.0 | 0.00 | 0.00 | 0.00 | 95 | 912.7 |
| 20260507102306 | 68 | 135 | 0.0 | 2.0 | 0.00 | 0.00 | 0.00 | 95 | 912.7 |
| 20260507101806 | 68 | 134 | 0.0 | 1.0 | 0.00 | 0.00 | 0.00 | 95 | 912.7 |
| 20260507101804 | 68 | 135 | 0.0 | 1.0 | 0.00 | 0.00 | 0.00 | 95 | 912.7 |
| 20260507095405 | 68 | 174 | 0.0 | 3.0 | 0.00 | 0.00 | 0.00 | 96 | 912.6 |
| 20260507093803 | 69 | 181 | 3.0 | 4.0 | 0.00 | 0.00 | 0.00 | 95 | 912.5 |
| 20260507093606 | 68 | 214 | 0.0 | 0.0 | 0.00 | 0.00 | 0.00 | 95 | 912.6 |
| 20260507093303 | 69 | 210 | 2.0 | 4.0 | 0.00 | 0.00 | 0.00 | 95 | 912.6 |
| 20260507093004 | 69 | 201 | 3.0 | 5.0 | 0.00 | 0.00 | 0.00 | 95 | 912.5 |
| 20260507092803 | 69 | 210 | 0.0 | 4.0 | 0.00 | 0.00 | 0.00 | 95 | 912.5 |
| 20260507092404 | 69 | 212 | 3.0 | 5.0 | 0.00 | 0.00 | 0.00 | 95 | 912.5 |
| 20260507092306 | 69 | 184 | 3.0 | 5.0 | 0.00 | 0.00 | 0.00 | 95 | 912.5 |
| 20260507091805 | 69 | 265 | 3.0 | 6.0 | 0.00 | 0.00 | 0.00 | 94 | 912.5 |
| 20260507091803 | 69 | 264 | 3.0 | 6.0 | 0.00 | 0.00 | 0.00 | 94 | 912.5 |
| 20260507091303 | 69 | 214 | 4.0 | 6.0 | 0.00 | 0.00 | 0.00 | 95 | 912.5 |
| 20260507091204 | 69 | 208 | 3.0 | 6.0 | 0.00 | 0.00 | 0.00 | 95 | 912.6 |
| 20260507090604 | 69 | 250 | 2.0 | 5.0 | 0.00 | 0.00 | 0.00 | 95 | 912.5 |
| 20260507090304 | 69 | 228 | 4.0 | 6.0 | 0.00 | 0.00 | 0.00 | 95 | 912.5 |
| 20260507090006 | 69 | 218 | 4.0 | 7.0 | 0.00 | 0.00 | 0.00 | 94 | 912.5 |
| 20260507085404 | 69 | 185 | 3.0 | 5.0 | 0.00 | 0.00 | 0.00 | 95 | 912.5 |
| 20260507085306 | 69 | 221 | 3.0 | 5.0 | 0.00 | 0.00 | 0.00 | 95 | 912.5 |
| 20260507084805 | 69 | 220 | 3.0 | 4.0 | 0.00 | 0.00 | 0.00 | 95 | 912.6 |
| 20260507084803 | 69 | 203 | 3.0 | 4.0 | 0.00 | 0.00 | 0.00 | 95 | 912.6 |
| 20260507084303 | 69 | 240 | 4.0 | 7.0 | 0.00 | 0.00 | 0.00 | 95 | 912.6 |
| 20260507084204 | 69 | 206 | 4.0 | 7.0 | 0.00 | 0.00 | 0.00 | 95 | 912.6 |
| 20260507083803 | 69 | 219 | 4.0 | 7.0 | 0.00 | 0.00 | 0.00 | 94 | 912.6 |
| 20260507083604 | 69 | 226 | 2.0 | 7.0 | 0.00 | 0.00 | 0.00 | 94 | 912.5 |
| 20260507083303 | 69 | 200 | 3.0 | 6.0 | 0.00 | 0.00 | 0.00 | 94 | 912.5 |
| 20260507083004 | 69 | 220 | 1.0 | 5.0 | 0.00 | 0.00 | 0.00 | 94 | 912.6 |
| 20260507082803 | 69 | 186 | 0.0 | 5.0 | 0.00 | 0.00 | 0.00 | 94 | 912.6 |
| 20260507082404 | 69 | 227 | 1.0 | 5.0 | 0.00 | 0.00 | 0.00 | 94 | 912.5 |
| 20260507082306 | 69 | 200 | 0.0 | 4.0 | 0.00 | 0.00 | 0.00 | 95 | 912.6 |
| 20260507081804 | 69 | 224 | 4.0 | 7.0 | 0.00 | 0.00 | 0.00 | 94 | 912.5 |
| 20260507081303 | 69 | 209 | 4.0 | 7.0 | 0.00 | 0.00 | 0.00 | 94 | 912.6 |
| 20260507081204 | 69 | 208 | 5.0 | 7.0 | 0.00 | 0.00 | 0.00 | 94 | 912.6 |
| 20260507080804 | 69 | 184 | 1.0 | 6.0 | 0.00 | 0.00 | 0.00 | 94 | 912.6 |
| 20260507080604 | 69 | 198 | 4.0 | 10.0 | 0.00 | 0.00 | 0.00 | 94 | 912.7 |
| 20260507080302 | 69 | 245 | 5.0 | 10.0 | 0.00 | 0.00 | 0.00 | 94 | 912.7 |
| 20260507080004 | 69 | 194 | 3.0 | 8.0 | 0.00 | 0.00 | 0.00 | 94 | 912.8 |
| 20260507075802 | 69 | 235 | 4.0 | 8.0 | 0.00 | 0.00 | 0.00 | 93 | 912.8 |
| 20260507075404 | 69 | 259 | 2.0 | 7.0 | 0.00 | 0.00 | 0.00 | 94 | 912.8 |
| 20260507075306 | 68 | 213 | 0.0 | 6.0 | 0.00 | 0.00 | 0.00 | 95 | 912.9 |
| 20260507074802 | 69 | 225 | 0.0 | 7.0 | 0.00 | 0.00 | 0.00 | 93 | 912.9 |
| 20260507074302 | 70 | 206 | 6.0 | 9.0 | 0.00 | 0.00 | 0.00 | 93 | 912.9 |
| 20260507074204 | 70 | 177 | 5.0 | 9.0 | 0.00 | 0.00 | 0.00 | 93 | 912.9 |
| 20260507073802 | 70 | 207 | 3.0 | 6.0 | 0.00 | 0.00 | 0.00 | 93 | 913.0 |
| 20260507073603 | 70 | 221 | 1.0 | 6.0 | 0.00 | 0.00 | 0.00 | 94 | 913.1 |
| 20260507073302 | 69 | 209 | 0.0 | 4.0 | 0.00 | 0.00 | 0.00 | 93 | 913.0 |
| 20260507073004 | 70 | 205 | 6.0 | 9.0 | 0.00 | 0.00 | 0.00 | 93 | 913.0 |
| 20260507072803 | 70 | 189 | 7.0 | 11.0 | 0.00 | 0.00 | 0.00 | 93 | 913.0 |
| 20260507072403 | 69 | 219 | 0.0 | 6.0 | 0.00 | 0.00 | 0.00 | 94 | 913.0 |
| 20260507072306 | 69 | 201 | 7.0 | 12.0 | 0.00 | 0.00 | 0.00 | 93 | 913.0 |
| 20260507071804 | 70 | 219 | 7.0 | 12.0 | 0.00 | 0.00 | 0.00 | 94 | 913.0 |
| 20260507071302 | 69 | 177 | 2.0 | 11.0 | 0.00 | 0.00 | 0.00 | 93 | 913.0 |
| 20260507071203 | 69 | 207 | 0.0 | 0.0 | 0.00 | 0.00 | 0.00 | 93 | 913.2 |
| 20260507070805 | 70 | 207 | 6.0 | 12.0 | 0.00 | 0.00 | 0.00 | 93 | 913.2 |
| 20260507070603 | 70 | 217 | 5.0 | 9.0 | 0.00 | 0.00 | 0.00 | 94 | 913.2 |
| 20260507070303 | 69 | 238 | 0.0 | 5.0 | 0.00 | 0.00 | 0.00 | 94 | 913.3 |
| 20260507070007 | 69 | 226 | 5.0 | 12.0 | 0.00 | 0.00 | 0.00 | 93 | 913.3 |
| 20260507065808 | 69 | 190 | 7.0 | 12.0 | 0.00 | 0.00 | 0.00 | 93 | 913.2 |
| 20260507065403 | 69 | 206 | 7.0 | 12.0 | 0.00 | 0.00 | 0.00 | 93 | 913.4 |
| 20260507065305 | 70 | 219 | 6.0 | 12.0 | 0.00 | 0.00 | 0.00 | 93 | 913.4 |
| 20260507064805 | 70 | 200 | 0.0 | 6.0 | 0.00 | 0.00 | 0.00 | 92 | 913.4 |
| 20260507064302 | 71 | 204 | 7.0 | 10.0 | 0.00 | 0.00 | 0.00 | 91 | 913.4 |
| 20260507064203 | 71 | 214 | 6.0 | 9.0 | 0.00 | 0.00 | 0.00 | 91 | 913.4 |
| 20260507063802 | 71 | 207 | 6.0 | 11.0 | 0.00 | 0.00 | 0.00 | 91 | 913.5 |
| 20260507063603 | 71 | 247 | 6.0 | 9.0 | 0.00 | 0.00 | 0.00 | 91 | 913.5 |
| 20260507063003 | 70 | 166 | 5.0 | 9.0 | 0.00 | 0.00 | 0.00 | 92 | 913.6 |
| 20260507062802 | 70 | 238 | 4.0 | 10.0 | 0.00 | 0.00 | 0.00 | 92 | 913.6 |
| 20260507062403 | 71 | 213 | 6.0 | 10.0 | 0.00 | 0.00 | 0.00 | 91 | 913.7 |
| 20260507062305 | 71 | 221 | 6.0 | 10.0 | 0.00 | 0.00 | 0.00 | 91 | 913.7 |
| 20260507061803 | 70 | 245 | 3.0 | 9.0 | 0.00 | 0.00 | 0.00 | 92 | 913.8 |
| 20260507061302 | 71 | 209 | 1.0 | 9.0 | 0.00 | 0.00 | 0.00 | 90 | 913.7 |
| 20260507060801 | 71 | 192 | 6.0 | 10.0 | 0.00 | 0.00 | 0.00 | 90 | 913.8 |
| 20260507060603 | 71 | 210 | 6.0 | 10.0 | 0.00 | 0.00 | 0.00 | 90 | 913.8 |
| 20260507060302 | 71 | 205 | 5.0 | 8.0 | 0.00 | 0.00 | 0.00 | 90 | 913.8 |
| 20260507060003 | 71 | 198 | 0.0 | 5.0 | 0.00 | 0.00 | 0.00 | 88 | 913.9 |
| 20260507055802 | 72 | 225 | 1.0 | 6.0 | 0.00 | 0.00 | 0.00 | 88 | 913.9 |
| 20260507055403 | 71 | 162 | 4.0 | 9.0 | 0.00 | 0.00 | 0.00 | 90 | 913.9 |
| 20260507055305 | 71 | 210 | 6.0 | 9.0 | 0.00 | 0.00 | 0.00 | 90 | 913.9 |
| 20260507054803 | 71 | 175 | 4.0 | 6.0 | 0.00 | 0.00 | 0.00 | 92 | 913.9 |
| 20260507054301 | 70 | 194 | 4.0 | 7.0 | 0.00 | 0.00 | 0.00 | 92 | 914.1 |
| 20260507054203 | 70 | 204 | 2.0 | 6.0 | 0.00 | 0.00 | 0.00 | 92 | 914.1 |
| 20260507053801 | 71 | 220 | 5.0 | 9.0 | 0.00 | 0.00 | 0.00 | 91 | 914.1 |
| 20260507053603 | 71 | 242 | 5.0 | 8.0 | 0.00 | 0.00 | 0.00 | 91 | 914.1 |
| 20260507053301 | 71 | 167 | 3.0 | 5.0 | 0.00 | 0.00 | 0.00 | 91 | 914.1 |
| 20260507053003 | 71 | 191 | 1.0 | 5.0 | 0.00 | 0.00 | 0.00 | 90 | 914.2 |
| 20260507052803 | 72 | 165 | 6.0 | 10.0 | 0.00 | 0.00 | 0.00 | 89 | 914.2 |
| 20260507052403 | 73 | 186 | 2.0 | 10.0 | 0.00 | 0.00 | 0.00 | 89 | 914.2 |
| 20260507052301 | 73 | 251 | 4.0 | 10.0 | 0.00 | 0.00 | 0.00 | 88 | 914.2 |
| 20260507051801 | 72 | 207 | 4.0 | 10.0 | 0.00 | 0.00 | 0.00 | 90 | 914.2 |
| 20260507051301 | 72 | 213 | 4.0 | 12.0 | 0.00 | 0.00 | 0.00 | 89 | 914.3 |
| 20260507051203 | 72 | 206 | 0.0 | 9.0 | 0.00 | 0.00 | 0.00 | 89 | 914.3 |
| 20260507050603 | 73 | 140 | 5.0 | 14.0 | 0.00 | 0.00 | 0.00 | 89 | 914.2 |
| 20260507050301 | 73 | 193 | 10.0 | 14.0 | 0.00 | 0.00 | 0.00 | 88 | 914.2 |
| 20260507050002 | 72 | 199 | 5.0 | 12.0 | 0.00 | 0.00 | 0.00 | 89 | 914.2 |
| 20260507045801 | 73 | 217 | 5.0 | 12.0 | 0.00 | 0.00 | 0.00 | 89 | 914.2 |
| 20260507045403 | 73 | 238 | 0.0 | 1.0 | 0.00 | 0.00 | 0.00 | 89 | 914.3 |
| 20260507045301 | 73 | 173 | 1.0 | 3.0 | 0.00 | 0.00 | 0.00 | 89 | 914.4 |
| 20260507044803 | 73 | 211 | 5.0 | 9.0 | 0.00 | 0.00 | 0.00 | 90 | 914.4 |
| 20260507044801 | 73 | 212 | 5.0 | 9.0 | 0.00 | 0.00 | 0.00 | 90 | 914.4 |
| 20260507044301 | 73 | 180 | 5.0 | 9.0 | 0.00 | 0.00 | 0.00 | 89 | 914.3 |
| 20260507044202 | 73 | 214 | 5.0 | 9.0 | 0.00 | 0.00 | 0.00 | 89 | 914.3 |
| 20260507043801 | 72 | 198 | 7.0 | 11.0 | 0.00 | 0.00 | 0.00 | 90 | 914.4 |
| 20260507043602 | 72 | 197 | 5.0 | 11.0 | 0.00 | 0.00 | 0.00 | 89 | 914.4 |
| 20260507043002 | 72 | 242 | 5.0 | 13.0 | 0.00 | 0.00 | 0.00 | 89 | 914.5 |
| 20260507042402 | 73 | 196 | 6.0 | 10.0 | 0.00 | 0.00 | 0.00 | 89 | 914.5 |
| 20260507041802 | 72 | 225 | 5.0 | 12.0 | 0.00 | 0.00 | 0.00 | 90 | 914.5 |
| 20260507041301 | 71 | 172 | 7.0 | 11.0 | 0.00 | 0.00 | 0.00 | 89 | 914.6 |
| 20260507041202 | 72 | 211 | 7.0 | 11.0 | 0.00 | 0.00 | 0.00 | 88 | 914.6 |
| 20260507040002 | 72 | 65 | 4.0 | 9.0 | 0.00 | 0.00 | 0.00 | 90 | 914.7 |
| 20260507035402 | 72 | 205 | 0.0 | 9.0 | 0.00 | 0.00 | 0.00 | 90 | 914.8 |
| 20260507035300 | 72 | 106 | 0.0 | 8.0 | 0.00 | 0.00 | 0.00 | 90 | 914.7 |
| 20260507034802 | 72 | 189 | 0.0 | 8.0 | 0.00 | 0.00 | 0.00 | 91 | 914.8 |
| 20260507034800 | 72 | 178 | 0.0 | 8.0 | 0.00 | 0.00 | 0.00 | 91 | 914.8 |
| 20260507034300 | 71 | 198 | 0.0 | 4.0 | 0.00 | 0.00 | 0.00 | 91 | 914.9 |
| 20260507034202 | 71 | 209 | 0.0 | 0.0 | 0.00 | 0.00 | 0.00 | 92 | 914.9 |
| 20260507033800 | 72 | 202 | 5.0 | 10.0 | 0.00 | 0.00 | 0.00 | 93 | 914.9 |
| 20260507033603 | 71 | 212 | 0.0 | 0.0 | 0.00 | 0.00 | 0.00 | 93 | 914.9 |
| 20260507033300 | 71 | 152 | 4.0 | 8.0 | 0.00 | 0.00 | 0.00 | 93 | 915.0 |
| 20260507033002 | 70 | 205 | 5.0 | 11.0 | 0.00 | 0.00 | 0.00 | 92 | 915.1 |
| 20260507032800 | 71 | 242 | 4.0 | 11.0 | 0.00 | 0.00 | 0.00 | 92 | 915.1 |
| 20260507032401 | 71 | 196 | 7.0 | 11.0 | 0.00 | 0.00 | 0.00 | 94 | 915.1 |
| 20260507032300 | 71 | 114 | 4.0 | 10.0 | 0.00 | 0.00 | 0.00 | 94 | 915.1 |
| 20260507031802 | 71 | 202 | 4.0 | 9.0 | 0.00 | 0.00 | 0.00 | 95 | 915.1 |
| 20260507031800 | 71 | 235 | 4.0 | 9.0 | 0.00 | 0.00 | 0.00 | 95 | 915.1 |
| 20260507031300 | 72 | 188 | 5.0 | 9.0 | 0.00 | 0.00 | 0.00 | 97 | 915.1 |
| 20260507031202 | 72 | 275 | 5.0 | 9.0 | 0.00 | 0.00 | 0.00 | 98 | 915.1 |
| 20260507030800 | 71 | 178 | 5.0 | 9.0 | 0.00 | 0.00 | 0.00 | 98 | 915.2 |
| 20260507030601 | 71 | 166 | 4.0 | 11.0 | 0.00 | 0.00 | 0.00 | 98 | 915.1 |
| 20260507030300 | 70 | 162 | 6.0 | 11.0 | 0.00 | 0.00 | 0.00 | 98 | 915.2 |
| 20260507030001 | 70 | 200 | 6.0 | 9.0 | 0.00 | 0.00 | 0.00 | 98 | 915.2 |
| 20260507025800 | 70 | 164 | 6.0 | 9.0 | 0.00 | 0.00 | 0.00 | 98 | 915.2 |
| 20260507025401 | 70 | 156 | 0.0 | 6.0 | 0.00 | 0.00 | 0.00 | 99 | 915.2 |
| 20260507025300 | 70 | 182 | 2.0 | 9.0 | 0.00 | 0.00 | 0.00 | 99 | 915.2 |
| 20260507024802 | 69 | 159 | 6.0 | 10.0 | 0.00 | 0.00 | 0.00 | 98 | 915.1 |
| 20260507024800 | 69 | 153 | 6.0 | 10.0 | 0.00 | 0.00 | 0.00 | 98 | 915.1 |
| 20260507024300 | 70 | 137 | 1.0 | 8.0 | 0.00 | 0.00 | 0.00 | 98 | 915.1 |
| 20260507024201 | 69 | 125 | 1.0 | 7.0 | 0.00 | 0.00 | 0.00 | 98 | 915.1 |
| 20260507023800 | 69 | 206 | 5.0 | 9.0 | 0.00 | 0.00 | 0.00 | 98 | 915.2 |
| 20260507023601 | 69 | 135 | 5.0 | 9.0 | 0.00 | 0.00 | 0.00 | 99 | 915.1 |
| 20260507023300 | 68 | 163 | 4.0 | 9.0 | 0.00 | 0.00 | 0.00 | 98 | 915.2 |
| 20260507023001 | 69 | 107 | 3.0 | 8.0 | 0.00 | 0.00 | 0.00 | 98 | 915.2 |
| 20260507022800 | 69 | 129 | 4.0 | 8.0 | 0.00 | 0.00 | 0.00 | 98 | 915.2 |
| 20260507022401 | 69 | 103 | 2.0 | 8.0 | 0.00 | 0.00 | 0.00 | 98 | 915.2 |
| 20260507022301 | 68 | 183 | 0.0 | 8.0 | 0.00 | 0.00 | 0.00 | 98 | 915.3 |
| 20260507021801 | 69 | 169 | 6.0 | 11.0 | 0.00 | 0.00 | 0.00 | 98 | 915.3 |
| 20260507021201 | 68 | 139 | 5.0 | 9.0 | 0.00 | 0.00 | 0.00 | 98 | 915.2 |
| 20260507020601 | 68 | 163 | 5.0 | 8.0 | 0.00 | 0.00 | 0.00 | 98 | 915.2 |
| 20260507020300 | 68 | 147 | 5.0 | 8.0 | 0.00 | 0.00 | 0.00 | 98 | 915.2 |
| 20260507020001 | 68 | 109 | 6.0 | 9.0 | 0.00 | 0.00 | 0.00 | 98 | 915.2 |
| 20260507015401 | 69 | 197 | 5.0 | 8.0 | 0.00 | 0.00 | 0.00 | 99 | 915.1 |
| 20260507014801 | 68 | 170 | 1.0 | 8.0 | 0.00 | 0.00 | 0.00 | 99 | 915.1 |
| 20260507014259 | 67 | 187 | 4.0 | 8.0 | 0.00 | 0.00 | 0.00 | 98 | 915.1 |
| 20260507014201 | 67 | 216 | 5.0 | 8.0 | 0.00 | 0.00 | 0.00 | 98 | 915.1 |
| 20260507013800 | 68 | 144 | 2.0 | 9.0 | 0.00 | 0.00 | 0.00 | 99 | 915.2 |
| 20260507013601 | 68 | 186 | 3.0 | 9.0 | 0.00 | 0.00 | 0.00 | 98 | 915.2 |
| 20260507013259 | 68 | 122 | 6.0 | 9.0 | 0.00 | 0.00 | 0.00 | 99 | 915.2 |
| 20260507013003 | 68 | 170 | 0.0 | 0.0 | 0.00 | 0.00 | 0.00 | 99 | 915.2 |
| 20260507012401 | 68 | 128 | 5.0 | 8.0 | 0.00 | 0.00 | 0.00 | 98 | 915.1 |
| 20260507012259 | 68 | 168 | 6.0 | 8.0 | 0.00 | 0.00 | 0.00 | 99 | 915.2 |
| 20260507011759 | 67 | 152 | 4.0 | 8.0 | 0.00 | 0.00 | 0.00 | 98 | 915.1 |
| 20260507011259 | 67 | 120 | 1.0 | 7.0 | 0.00 | 0.00 | 0.00 | 99 | 915.1 |
| 20260507011201 | 67 | 171 | 0.0 | 0.0 | 0.00 | 0.00 | 0.00 | 99 | 915.1 |
| 20260507010759 | 67 | 196 | 0.0 | 6.0 | 0.00 | 0.00 | 0.00 | 99 | 915.1 |
| 20260507010601 | 68 | 127 | 1.0 | 7.0 | 0.00 | 0.00 | 0.00 | 99 | 915.0 |
| 20260507010300 | 68 | 179 | 4.0 | 7.0 | 0.00 | 0.00 | 0.00 | 98 | 915.0 |
| 20260507010000 | 68 | 152 | 1.0 | 4.0 | 0.00 | 0.00 | 0.00 | 99 | 915.0 |
| 20260507005759 | 68 | 139 | 1.0 | 4.0 | 0.00 | 0.00 | 0.00 | 99 | 915.0 |
| 20260507005400 | 66 | 145 | 0.0 | 3.0 | 0.00 | 0.00 | 0.00 | 99 | 915.1 |
| 20260507004301 | 66 | 97 | 0.0 | 4.0 | 0.00 | 0.00 | 0.00 | 98 | 915.1 |
| 20260507004200 | 66 | 111 | 1.0 | 4.0 | 0.00 | 0.00 | 0.00 | 98 | 915.0 |
| 20260507003759 | 66 | 127 | 1.0 | 3.0 | 0.00 | 0.00 | 0.00 | 98 | 915.0 |
| 20260507003259 | 65 | 82 | 0.0 | 3.0 | 0.00 | 0.00 | 0.00 | 98 | 915.0 |
| 20260507003000 | 65 | 84 | 1.0 | 4.0 | 0.00 | 0.00 | 0.00 | 98 | 915.0 |
| 20260507002400 | 65 | 92 | 1.0 | 6.0 | 0.00 | 0.00 | 0.00 | 98 | 914.9 |
| 20260507002259 | 65 | 87 | 4.0 | 7.0 | 0.00 | 0.00 | 0.00 | 98 | 914.9 |
| 20260507001800 | 65 | 92 | 1.0 | 6.0 | 0.00 | 0.00 | 0.00 | 98 | 915.0 |
| 20260507001759 | 65 | 96 | 1.0 | 6.0 | 0.00 | 0.00 | 0.00 | 98 | 914.9 |
| 20260507001259 | 65 | 102 | 1.0 | 3.0 | 0.00 | 0.00 | 0.00 | 98 | 915.0 |
| 20260507001200 | 65 | 117 | 3.0 | 5.0 | 0.00 | 0.00 | 0.00 | 98 | 914.9 |
| 20260507000759 | 65 | 113 | 1.0 | 6.0 | 0.00 | 0.00 | 0.00 | 98 | 914.9 |
| 20260507000600 | 65 | 95 | 2.0 | 6.0 | 0.00 | 0.00 | 0.00 | 98 | 914.9 |
| 20260506235259 | 65 | 94 | 1.0 | 6.0 | 0.00 | 0.00 | 0.00 | 98 | 914.9 |
| 20260506234800 | 65 | 112 | 4.0 | 7.0 | 0.00 | 0.00 | 0.00 | 98 | 914.8 |
| 20260506234759 | 65 | 119 | 4.0 | 7.0 | 0.00 | 0.00 | 0.00 | 98 | 914.8 |
| 20260506234259 | 65 | 114 | 2.0 | 4.0 | 0.00 | 0.00 | 0.00 | 98 | 914.9 |
| 20260506234200 | 65 | 123 | 0.0 | 3.0 | 0.00 | 0.00 | 0.00 | 98 | 914.9 |
| 20260506233758 | 65 | 74 | 3.0 | 5.0 | 0.00 | 0.00 | 0.00 | 98 | 914.8 |
| 20260506233600 | 65 | 77 | 0.0 | 4.0 | 0.00 | 0.00 | 0.00 | 98 | 914.8 |
| 20260506233258 | 65 | 111 | 5.0 | 9.0 | 0.00 | 0.00 | 0.00 | 98 | 914.8 |
| 20260506233000 | 65 | 86 | 0.0 | 7.0 | 0.00 | 0.00 | 0.00 | 98 | 914.8 |
| 20260506232400 | 65 | 109 | 3.0 | 8.0 | 0.00 | 0.00 | 0.00 | 98 | 914.7 |
| 20260506232258 | 64 | 76 | 1.0 | 6.0 | 0.00 | 0.00 | 0.00 | 98 | 914.8 |
| 20260506231800 | 65 | 70 | 4.0 | 7.0 | 0.00 | 0.00 | 0.00 | 98 | 914.7 |
| 20260506231758 | 65 | 68 | 4.0 | 7.0 | 0.00 | 0.00 | 0.00 | 98 | 914.7 |
| 20260506231258 | 65 | 109 | 6.0 | 9.0 | 0.00 | 0.00 | 0.00 | 98 | 914.7 |
| 20260506231253 | 65 | 98 | 6.0 | 9.0 | 0.00 | 0.00 | 0.00 | 98 | 914.6 |
| 20260506231200 | 65 | 98 | 6.0 | 9.0 | 0.00 | 0.00 | 0.00 | 98 | 914.6 |
| 20260506230759 | 65 | 91 | 6.0 | 8.0 | 0.00 | 0.00 | 0.00 | 98 | 914.6 |
| 20260506230600 | 65 | 90 | 3.0 | 8.0 | 0.00 | 0.00 | 0.00 | 98 | 914.6 |
| 20260506230258 | 65 | 87 | 7.0 | 9.0 | 0.00 | 0.00 | 0.00 | 98 | 914.5 |
| 20260506230000 | 64 | 88 | 1.0 | 8.0 | 0.00 | 0.00 | 0.00 | 98 | 914.6 |
| 20260506225758 | 64 | 96 | 2.0 | 8.0 | 0.00 | 0.00 | 0.00 | 98 | 914.5 |
| 20260506225400 | 64 | 94 | 0.0 | 0.0 | 0.00 | 0.00 | 0.00 | 98 | 914.5 |
| 20260506225300 | 65 | 87 | 4.0 | 8.0 | 0.00 | 0.00 | 0.00 | 98 | 914.5 |
| 20260506224800 | 64 | 85 | 0.0 | 7.0 | 0.00 | 0.00 | 0.00 | 98 | 914.5 |
| 20260506224758 | 64 | 89 | 0.0 | 7.0 | 0.00 | 0.00 | 0.00 | 98 | 914.5 |
| 20260506224258 | 65 | 92 | 2.0 | 7.0 | 0.00 | 0.00 | 0.00 | 98 | 914.5 |
| 20260506224159 | 65 | 79 | 3.0 | 7.0 | 0.00 | 0.00 | 0.00 | 98 | 914.5 |
| 20260506223758 | 64 | 94 | 1.0 | 8.0 | 0.00 | 0.00 | 0.00 | 98 | 914.5 |
| 20260506223559 | 65 | 79 | 7.0 | 9.0 | 0.00 | 0.00 | 0.00 | 98 | 914.4 |
| 20260506223258 | 65 | 87 | 7.0 | 9.0 | 0.00 | 0.00 | 0.00 | 98 | 914.5 |
| 20260506222959 | 65 | 89 | 5.0 | 8.0 | 0.00 | 0.00 | 0.00 | 98 | 914.5 |
| 20260506222758 | 65 | 44 | 5.0 | 8.0 | 0.00 | 0.00 | 0.00 | 98 | 914.5 |
| 20260506222359 | 64 | 95 | 6.0 | 8.0 | 0.00 | 0.00 | 0.00 | 98 | 914.5 |
| 20260506222258 | 64 | 64 | 5.0 | 8.0 | 0.00 | 0.00 | 0.00 | 98 | 914.5 |
| 20260506221800 | 64 | 70 | 5.0 | 8.0 | 0.00 | 0.00 | 0.00 | 98 | 914.4 |
| 20260506221758 | 64 | 76 | 5.0 | 8.0 | 0.00 | 0.00 | 0.00 | 98 | 914.4 |
| 20260506221258 | 64 | 60 | 4.0 | 7.0 | 0.00 | 0.00 | 0.00 | 98 | 914.5 |
| 20260506221159 | 64 | 68 | 3.0 | 7.0 | 0.00 | 0.00 | 0.00 | 98 | 914.4 |
| 20260506220758 | 64 | 139 | 5.0 | 7.0 | 0.00 | 0.00 | 0.00 | 98 | 914.4 |
| 20260506220559 | 64 | 83 | 4.0 | 7.0 | 0.00 | 0.00 | 0.00 | 98 | 914.3 |
| 20260506220258 | 64 | 69 | 4.0 | 7.0 | 0.00 | 0.00 | 0.00 | 98 | 914.3 |
| 20260506215959 | 64 | 99 | 3.0 | 7.0 | 0.00 | 0.00 | 0.00 | 98 | 914.2 |
| 20260506215759 | 64 | 115 | 7.0 | 13.0 | 0.00 | 0.00 | 0.00 | 98 | 914.1 |
| 20260506215359 | 64 | 109 | 4.0 | 8.0 | 0.00 | 0.00 | 0.00 | 98 | 914.2 |
| 20260506215258 | 64 | 53 | 4.0 | 8.0 | 0.00 | 0.00 | 0.00 | 98 | 914.2 |
| 20260506214758 | 64 | 71 | 5.0 | 10.0 | 0.00 | 0.00 | 0.00 | 98 | 914.2 |
| 20260506214159 | 64 | 73 | 8.0 | 10.0 | 0.00 | 0.00 | 0.00 | 98 | 914.1 |
| 20260506213758 | 64 | 85 | 5.0 | 8.0 | 0.00 | 0.00 | 0.00 | 98 | 914.0 |
| 20260506213559 | 64 | 70 | 7.0 | 10.0 | 0.00 | 0.00 | 0.00 | 98 | 914.0 |
| 20260506213257 | 64 | 77 | 8.0 | 9.0 | 0.00 | 0.00 | 0.00 | 98 | 913.8 |
| 20260506212959 | 64 | 80 | 7.0 | 9.0 | 0.00 | 0.00 | 0.00 | 98 | 913.9 |
| 20260506212757 | 64 | 81 | 6.0 | 8.0 | 0.00 | 0.00 | 0.00 | 98 | 913.8 |
| 20260506212359 | 64 | 63 | 6.0 | 9.0 | 0.00 | 0.00 | 0.00 | 98 | 913.7 |
| 20260506212257 | 64 | 76 | 7.0 | 9.0 | 0.00 | 0.00 | 0.00 | 98 | 913.8 |
| 20260506211759 | 64 | 88 | 7.0 | 10.0 | 0.00 | 0.00 | 0.00 | 98 | 913.7 |
| 20260506211757 | 64 | 85 | 7.0 | 10.0 | 0.00 | 0.00 | 0.00 | 98 | 913.7 |
| 20260506211257 | 64 | 66 | 8.0 | 10.0 | 0.00 | 0.00 | 0.00 | 98 | 913.6 |
| 20260506211159 | 64 | 80 | 8.0 | 10.0 | 0.00 | 0.00 | 0.00 | 98 | 913.6 |
| 20260506210757 | 64 | 82 | 9.0 | 11.0 | 0.00 | 0.00 | 0.00 | 98 | 913.7 |
| 20260506210559 | 64 | 70 | 9.0 | 11.0 | 0.00 | 0.00 | 0.00 | 98 | 913.6 |
| 20260506210257 | 64 | 89 | 9.0 | 11.0 | 0.00 | 0.00 | 0.00 | 98 | 913.5 |
| 20260506205959 | 64 | 75 | 8.0 | 11.0 | 0.00 | 0.00 | 0.00 | 98 | 913.6 |
| 20260506205757 | 64 | 81 | 8.0 | 11.0 | 0.00 | 0.00 | 0.00 | 98 | 913.6 |
| 20260506205359 | 64 | 80 | 7.0 | 11.0 | 0.00 | 0.00 | 0.00 | 98 | 913.6 |
| 20260506205257 | 64 | 90 | 8.0 | 11.0 | 0.00 | 0.00 | 0.00 | 98 | 913.6 |
| 20260506204759 | 64 | 84 | 8.0 | 12.0 | 0.00 | 0.00 | 0.00 | 98 | 913.6 |
| 20260506204757 | 64 | 93 | 8.0 | 12.0 | 0.00 | 0.00 | 0.00 | 98 | 913.5 |
| 20260506204257 | 64 | 95 | 10.0 | 12.0 | 0.00 | 0.00 | 0.00 | 98 | 913.6 |
| 20260506204158 | 64 | 108 | 9.0 | 12.0 | 0.00 | 0.00 | 0.00 | 98 | 913.6 |
| 20260506203757 | 64 | 115 | 7.0 | 12.0 | 0.00 | 0.00 | 0.00 | 98 | 913.5 |
| 20260506203558 | 64 | 105 | 8.0 | 12.0 | 0.00 | 0.00 | 0.00 | 98 | 913.6 |
| 20260506203257 | 64 | 100 | 8.0 | 11.0 | 0.00 | 0.00 | 0.00 | 98 | 913.6 |
| 20260506202958 | 64 | 119 | 7.0 | 11.0 | 0.00 | 0.00 | 0.00 | 98 | 913.5 |
| 20260506202757 | 64 | 119 | 7.0 | 11.0 | 0.00 | 0.00 | 0.00 | 98 | 913.6 |
| 20260506202358 | 64 | 129 | 7.0 | 11.0 | 0.00 | 0.00 | 0.00 | 98 | 913.5 |
| 20260506202257 | 64 | 107 | 7.0 | 11.0 | 0.00 | 0.00 | 0.00 | 98 | 913.6 |
| 20260506201759 | 64 | 118 | 8.0 | 11.0 | 0.00 | 0.00 | 0.00 | 98 | 913.5 |
| 20260506201757 | 64 | 106 | 8.0 | 11.0 | 0.00 | 0.00 | 0.00 | 98 | 913.5 |
| 20260506201257 | 64 | 112 | 8.0 | 11.0 | 0.00 | 0.00 | 0.00 | 98 | 913.4 |
| 20260506201158 | 64 | 100 | 8.0 | 11.0 | 0.00 | 0.00 | 0.00 | 98 | 913.4 |
| 20260506200757 | 64 | 94 | 7.0 | 11.0 | 0.00 | 0.00 | 0.00 | 98 | 913.4 |
| 20260506200558 | 64 | 129 | 8.0 | 11.0 | 0.00 | 0.00 | 0.00 | 98 | 913.4 |
| 20260506200257 | 64 | 72 | 7.0 | 11.0 | 0.00 | 0.00 | 0.00 | 98 | 913.5 |
| 20260506195958 | 64 | 103 | 8.0 | 11.0 | 0.00 | 0.00 | 0.00 | 98 | 913.4 |
| 20260506195757 | 63 | 99 | 8.0 | 11.0 | 0.00 | 0.00 | 0.00 | 98 | 913.4 |
| 20260506195358 | 64 | 115 | 9.0 | 12.0 | 0.00 | 0.00 | 0.00 | 98 | 913.3 |
| 20260506195257 | 64 | 95 | 9.0 | 12.0 | 0.00 | 0.00 | 0.00 | 98 | 913.3 |
| 20260506194758 | 64 | 96 | 9.0 | 12.0 | 0.00 | 0.00 | 0.00 | 98 | 913.4 |
| 20260506194256 | 64 | 123 | 6.0 | 10.0 | 0.00 | 0.00 | 0.00 | 98 | 913.4 |
| 20260506194158 | 64 | 87 | 7.0 | 10.0 | 0.00 | 0.00 | 0.00 | 98 | 913.4 |
| 20260506193756 | 64 | 103 | 8.0 | 10.0 | 0.00 | 0.00 | 0.00 | 98 | 913.4 |
| 20260506193256 | 64 | 126 | 8.0 | 10.0 | 0.00 | 0.00 | 0.00 | 98 | 913.4 |
| 20260506192958 | 64 | 106 | 1.0 | 8.0 | 0.00 | 0.00 | 0.00 | 98 | 913.4 |
| 20260506192756 | 64 | 117 | 7.0 | 11.0 | 0.00 | 0.00 | 0.00 | 98 | 913.4 |
| 20260506192358 | 64 | 91 | 8.0 | 10.0 | 0.00 | 0.00 | 0.00 | 98 | 913.4 |
| 20260506192256 | 64 | 109 | 8.0 | 10.0 | 0.00 | 0.00 | 0.00 | 98 | 913.4 |
| 20260506191758 | 64 | 107 | 8.0 | 10.0 | 0.00 | 0.00 | 0.00 | 98 | 913.4 |
| 20260506191756 | 64 | 108 | 8.0 | 10.0 | 0.00 | 0.00 | 0.00 | 98 | 913.5 |
| 20260506191256 | 64 | 101 | 6.0 | 8.0 | 0.00 | 0.00 | 0.00 | 98 | 913.6 |
| 20260506191158 | 64 | 114 | 5.0 | 8.0 | 0.00 | 0.00 | 0.00 | 98 | 913.6 |
| 20260506190756 | 64 | 99 | 5.0 | 8.0 | 0.00 | 0.00 | 0.00 | 98 | 913.5 |
| 20260506190256 | 64 | 112 | 5.0 | 8.0 | 0.00 | 0.00 | 0.00 | 98 | 913.4 |
| 20260506185958 | 64 | 126 | 4.0 | 8.0 | 0.00 | 0.00 | 0.00 | 98 | 913.6 |
| 20260506185756 | 64 | 103 | 5.0 | 8.0 | 0.00 | 0.00 | 0.00 | 98 | 913.6 |
| 20260506185358 | 64 | 118 | 4.0 | 6.0 | 0.00 | 0.00 | 0.00 | 98 | 913.6 |
| 20260506185256 | 64 | 135 | 5.0 | 6.0 | 0.00 | 0.00 | 0.00 | 98 | 913.7 |
| 20260506184758 | 64 | 80 | 0.0 | 2.0 | 0.00 | 0.00 | 0.00 | 98 | 913.7 |
| 20260506184756 | 64 | 74 | 0.0 | 2.0 | 0.00 | 0.00 | 0.00 | 98 | 913.6 |
| 20260506184256 | 64 | 116 | 4.0 | 7.0 | 0.00 | 0.00 | 0.00 | 98 | 913.7 |
| 20260506184157 | 64 | 98 | 4.0 | 7.0 | 0.00 | 0.00 | 0.00 | 98 | 913.7 |
| 20260506183756 | 64 | 43 | 3.0 | 6.0 | 0.00 | 0.00 | 0.00 | 98 | 913.7 |
| 20260506183558 | 64 | 115 | 3.0 | 6.0 | 0.00 | 0.00 | 0.00 | 98 | 913.7 |
| 20260506183256 | 64 | 96 | 4.0 | 7.0 | 0.00 | 0.00 | 0.00 | 98 | 913.7 |
| 20260506182957 | 64 | 108 | 4.0 | 8.0 | 0.00 | 0.00 | 0.00 | 98 | 913.8 |
| 20260506182756 | 64 | 82 | 4.0 | 9.0 | 0.00 | 0.00 | 0.00 | 98 | 913.8 |
| 20260506182357 | 64 | 104 | 5.0 | 9.0 | 0.00 | 0.00 | 0.00 | 98 | 913.8 |
| 20260506182257 | 64 | 97 | 5.0 | 9.0 | 0.00 | 0.00 | 0.00 | 98 | 913.8 |
| 20260506181758 | 64 | 93 | 6.0 | 9.0 | 0.00 | 0.00 | 0.00 | 98 | 913.8 |
| 20260506181756 | 64 | 97 | 6.0 | 9.0 | 0.00 | 0.00 | 0.00 | 98 | 913.8 |
| 20260506181256 | 64 | 73 | 5.0 | 9.0 | 0.00 | 0.00 | 0.00 | 98 | 913.9 |
| 20260506181157 | 64 | 102 | 5.0 | 9.0 | 0.00 | 0.00 | 0.00 | 98 | 913.9 |
| 20260506180756 | 64 | 117 | 4.0 | 9.0 | 0.00 | 0.00 | 0.00 | 98 | 913.9 |
| 20260506180557 | 64 | 111 | 6.0 | 9.0 | 0.00 | 0.00 | 0.00 | 98 | 913.9 |
| 20260506180256 | 64 | 84 | 6.0 | 9.0 | 0.00 | 0.00 | 0.00 | 98 | 913.9 |
| 20260506175958 | 64 | 108 | 6.0 | 9.0 | 0.00 | 0.00 | 0.00 | 98 | 913.9 |
| 20260506175756 | 64 | 118 | 5.0 | 9.0 | 0.00 | 0.00 | 0.00 | 98 | 914.0 |
| 20260506175357 | 64 | 95 | 5.0 | 9.0 | 0.00 | 0.00 | 0.00 | 98 | 914.0 |
| 20260506175256 | 64 | 107 | 4.0 | 8.0 | 0.00 | 0.00 | 0.00 | 98 | 914.0 |
| 20260506174757 | 64 | 128 | 6.0 | 8.0 | 0.00 | 0.00 | 0.00 | 98 | 914.0 |
| 20260506174256 | 64 | 128 | 4.0 | 6.0 | 0.00 | 0.00 | 0.00 | 98 | 914.0 |
| 20260506174157 | 64 | 111 | 4.0 | 6.0 | 0.00 | 0.00 | 0.00 | 98 | 914.0 |
| 20260506173756 | 64 | 109 | 7.0 | 10.0 | 0.00 | 0.00 | 0.00 | 98 | 914.0 |
| 20260506173557 | 64 | 112 | 7.0 | 10.0 | 0.00 | 0.00 | 0.00 | 98 | 914.0 |
| 20260506173257 | 64 | 121 | 7.0 | 10.0 | 0.00 | 0.00 | 0.00 | 98 | 913.9 |
| 20260506172755 | 64 | 89 | 7.0 | 10.0 | 0.00 | 0.00 | 0.00 | 98 | 913.9 |
| 20260506172357 | 63 | 61 | 8.0 | 10.0 | 0.00 | 0.00 | 0.00 | 98 | 913.9 |
| 20260506172255 | 63 | 72 | 7.0 | 9.0 | 0.00 | 0.00 | 0.00 | 98 | 913.9 |
| 20260506171757 | 64 | 77 | 7.0 | 8.0 | 0.00 | 0.00 | 0.00 | 98 | 914.0 |
| 20260506171255 | 64 | 94 | 1.0 | 8.0 | 0.00 | 0.00 | 0.00 | 98 | 914.0 |
| 20260506171157 | 63 | 74 | 0.0 | 0.0 | 0.00 | 0.00 | 0.00 | 98 | 914.0 |
| 20260506170255 | 64 | 64 | 2.0 | 12.0 | 0.00 | 0.00 | 0.00 | 98 | 914.0 |
| 20260506165957 | 64 | 87 | 6.0 | 10.0 | 0.00 | 0.00 | 0.00 | 98 | 914.0 |
| 20260506165755 | 64 | 79 | 4.0 | 9.0 | 0.00 | 0.00 | 0.00 | 98 | 914.0 |
| 20260506165357 | 63 | 74 | 1.0 | 7.0 | 0.00 | 0.00 | 0.00 | 98 | 914.1 |
| 20260506165255 | 63 | 71 | 2.0 | 7.0 | 0.00 | 0.00 | 0.00 | 98 | 914.1 |
| 20260506164757 | 64 | 55 | 6.0 | 10.0 | 0.00 | 0.00 | 0.00 | 98 | 914.1 |
| 20260506164755 | 64 | 39 | 6.0 | 10.0 | 0.00 | 0.00 | 0.00 | 98 | 914.1 |
| 20260506164255 | 64 | 84 | 6.0 | 12.0 | 0.00 | 0.00 | 0.00 | 98 | 914.0 |
| 20260506164157 | 64 | 79 | 8.0 | 12.0 | 0.00 | 0.00 | 0.00 | 98 | 914.1 |
| 20260506163755 | 63 | 103 | 9.0 | 12.0 | 0.00 | 0.00 | 0.00 | 98 | 914.0 |
| 20260506163557 | 63 | 78 | 9.0 | 12.0 | 0.00 | 0.00 | 0.00 | 98 | 914.0 |
| 20260506162956 | 63 | 80 | 10.0 | 12.0 | 0.00 | 0.00 | 0.00 | 98 | 914.1 |
| 20260506162755 | 63 | 61 | 6.0 | 11.0 | 0.00 | 0.00 | 0.00 | 98 | 914.1 |
| 20260506162356 | 63 | 83 | 8.0 | 12.0 | 0.00 | 0.00 | 0.00 | 98 | 914.1 |
| 20260506162255 | 63 | 71 | 8.0 | 10.0 | 0.00 | 0.00 | 0.00 | 98 | 914.2 |
| 20260506161757 | 63 | 71 | 8.0 | 10.0 | 0.00 | 0.00 | 0.00 | 98 | 914.1 |
| 20260506161755 | 63 | 75 | 8.0 | 10.0 | 0.00 | 0.00 | 0.00 | 98 | 914.2 |
| 20260506161257 | 63 | 79 | 0.0 | 0.0 | 0.00 | 0.00 | 0.00 | 98 | 914.3 |
| 20260506161156 | 63 | 77 | 9.0 | 12.0 | 0.00 | 0.00 | 0.00 | 98 | 914.2 |
| 20260506160755 | 63 | 83 | 8.0 | 12.0 | 0.00 | 0.00 | 0.00 | 98 | 914.2 |
| 20260506160556 | 63 | 53 | 8.0 | 12.0 | 0.00 | 0.00 | 0.00 | 98 | 914.3 |
| 20260506160255 | 63 | 68 | 1.0 | 12.0 | 0.00 | 0.00 | 0.00 | 98 | 914.3 |
| 20260506155958 | 63 | 69 | 10.0 | 13.0 | 0.00 | 0.00 | 0.00 | 98 | 914.3 |
| 20260506155755 | 63 | 42 | 9.0 | 13.0 | 0.00 | 0.00 | 0.00 | 98 | 914.3 |
| 20260506155356 | 63 | 54 | 9.0 | 13.0 | 0.00 | 0.00 | 0.00 | 98 | 914.2 |
| 20260506155255 | 63 | 72 | 8.0 | 13.0 | 0.00 | 0.00 | 0.00 | 98 | 914.3 |
| 20260506154757 | 63 | 88 | 1.0 | 9.0 | 0.00 | 0.00 | 0.00 | 98 | 914.3 |
| 20260506154755 | 63 | 90 | 1.0 | 9.0 | 0.00 | 0.00 | 0.00 | 98 | 914.3 |
| 20260506154255 | 63 | 81 | 7.0 | 12.0 | 0.00 | 0.00 | 0.00 | 98 | 914.3 |
| 20260506154156 | 63 | 76 | 3.0 | 10.0 | 0.00 | 0.00 | 0.00 | 98 | 914.3 |
| 20260506153755 | 63 | 51 | 10.0 | 13.0 | 0.00 | 0.00 | 0.00 | 98 | 914.2 |
| 20260506153556 | 63 | 56 | 9.0 | 11.0 | 0.00 | 0.00 | 0.00 | 98 | 914.3 |
| 20260506153255 | 63 | 62 | 9.0 | 10.0 | 0.00 | 0.00 | 0.00 | 98 | 914.4 |
| 20260506152956 | 64 | 48 | 7.0 | 10.0 | 0.00 | 0.00 | 0.00 | 98 | 914.4 |
| 20260506152755 | 64 | 66 | 1.0 | 7.0 | 0.00 | 0.00 | 0.00 | 98 | 914.5 |
| 20260506152356 | 64 | 90 | 7.0 | 9.0 | 0.00 | 0.00 | 0.00 | 98 | 914.4 |
| 20260506152255 | 64 | 83 | 7.0 | 9.0 | 0.00 | 0.00 | 0.00 | 98 | 914.5 |
| 20260506151756 | 64 | 73 | 6.0 | 11.0 | 0.00 | 0.00 | 0.00 | 98 | 914.6 |
| 20260506151254 | 64 | 74 | 8.0 | 11.0 | 0.00 | 0.00 | 0.00 | 98 | 914.6 |
| 20260506151156 | 64 | 71 | 8.0 | 11.0 | 0.00 | 0.00 | 0.00 | 98 | 914.5 |
| 20260506150754 | 64 | 77 | 9.0 | 11.0 | 0.00 | 0.00 | 0.00 | 98 | 914.5 |
| 20260506150557 | 64 | 80 | 8.0 | 11.0 | 0.00 | 0.00 | 0.00 | 98 | 914.5 |
| 20260506150302 | 64 | 68 | 2.0 | 8.0 | 0.00 | 0.00 | 0.00 | 98 | 914.6 |
| 20260506145956 | 64 | 69 | 7.0 | 9.0 | 0.00 | 0.00 | 0.00 | 98 | 914.6 |
| 20260506145754 | 63 | 39 | 0.0 | 0.0 | 0.00 | 0.00 | 0.00 | 98 | 914.6 |
| 20260506145356 | 64 | 85 | 8.0 | 12.0 | 0.00 | 0.00 | 0.00 | 98 | 914.6 |
| 20260506145254 | 64 | 69 | 8.0 | 12.0 | 0.00 | 0.00 | 0.00 | 98 | 914.6 |
| 20260506144756 | 63 | 91 | 9.0 | 11.0 | 0.00 | 0.00 | 0.00 | 98 | 914.7 |
| 20260506144254 | 63 | 81 | 9.0 | 11.0 | 0.00 | 0.00 | 0.00 | 98 | 914.6 |
| 20260506144156 | 63 | 48 | 8.0 | 9.0 | 0.00 | 0.00 | 0.00 | 98 | 914.6 |
| 20260506143754 | 63 | 78 | 8.0 | 11.0 | 0.00 | 0.00 | 0.00 | 98 | 914.6 |
| 20260506143254 | 63 | 71 | 5.0 | 10.0 | 0.00 | 0.00 | 0.00 | 98 | 914.5 |
| 20260506142956 | 63 | 107 | 7.0 | 10.0 | 0.00 | 0.00 | 0.00 | 98 | 914.4 |
| 20260506142754 | 63 | 90 | 1.0 | 9.0 | 0.00 | 0.00 | 0.00 | 98 | 914.4 |
| 20260506142357 | 63 | 80 | 5.0 | 9.0 | 0.00 | 0.00 | 0.00 | 98 | 914.4 |
| 20260506142254 | 63 | 71 | 6.0 | 9.0 | 0.00 | 0.00 | 0.00 | 98 | 914.4 |
| 20260506141757 | 63 | 85 | 0.0 | 0.0 | 0.00 | 0.00 | 0.00 | 98 | 914.5 |
| 20260506141254 | 63 | 79 | 4.0 | 7.0 | 0.00 | 0.00 | 0.00 | 98 | 914.4 |
| 20260506141155 | 63 | 81 | 5.0 | 7.0 | 0.00 | 0.00 | 0.00 | 98 | 914.4 |
| 20260506140754 | 63 | 66 | 2.0 | 5.0 | 0.00 | 0.00 | 0.00 | 98 | 914.4 |
| 20260506140555 | 63 | 114 | 2.0 | 3.0 | 0.00 | 0.00 | 0.00 | 98 | 914.5 |
| 20260506140254 | 63 | 28 | 0.0 | 2.0 | 0.00 | 0.00 | 0.00 | 98 | 914.5 |
| 20260506135955 | 63 | 41 | 3.0 | 5.0 | 0.00 | 0.00 | 0.00 | 98 | 914.4 |
| 20260506135754 | 63 | 71 | 2.0 | 5.0 | 0.00 | 0.00 | 0.00 | 98 | 914.4 |
| 20260506135355 | 64 | 10 | 2.0 | 4.0 | 0.00 | 0.00 | 0.00 | 98 | 914.4 |
| 20260506135254 | 64 | 37 | 2.0 | 4.0 | 0.00 | 0.00 | 0.00 | 98 | 914.5 |
| 20260506134756 | 64 | 38 | 3.0 | 7.0 | 0.00 | 0.00 | 0.00 | 98 | 914.4 |
| 20260506134754 | 64 | 40 | 3.0 | 7.0 | 0.00 | 0.00 | 0.00 | 98 | 914.4 |
| 20260506134254 | 64 | 60 | 4.0 | 7.0 | 0.00 | 0.00 | 0.00 | 98 | 914.4 |
| 20260506134155 | 64 | 115 | 4.0 | 7.0 | 0.00 | 0.00 | 0.00 | 98 | 914.3 |
| 20260506133754 | 64 | 86 | 3.0 | 5.0 | 0.00 | 0.00 | 0.00 | 98 | 914.3 |
| 20260506133555 | 64 | 91 | 0.0 | 1.0 | 0.00 | 0.00 | 0.00 | 98 | 914.3 |
| 20260506133254 | 64 | 58 | 4.0 | 7.0 | 0.00 | 0.00 | 0.00 | 98 | 914.3 |
| 20260506132955 | 64 | 77 | 4.0 | 7.0 | 0.00 | 0.00 | 0.00 | 98 | 914.3 |
| 20260506132754 | 64 | 91 | 4.0 | 6.0 | 0.00 | 0.00 | 0.00 | 98 | 914.3 |
| 20260506132355 | 63 | 62 | 4.0 | 7.0 | 0.00 | 0.00 | 0.00 | 98 | 914.3 |
| 20260506132254 | 63 | 55 | 5.0 | 7.0 | 0.00 | 0.00 | 0.00 | 98 | 914.2 |
| 20260506131755 | 63 | 70 | 4.0 | 7.0 | 0.00 | 0.00 | 0.00 | 98 | 914.1 |
| 20260506131753 | 63 | 68 | 4.0 | 7.0 | 0.00 | 0.00 | 0.00 | 98 | 914.1 |
| 20260506131254 | 63 | 87 | 2.0 | 6.0 | 0.00 | 0.00 | 0.00 | 98 | 914.1 |
| 20260506131155 | 63 | 77 | 0.0 | 4.0 | 0.00 | 0.00 | 0.00 | 98 | 914.1 |
| 20260506130755 | 64 | 94 | 3.0 | 5.0 | 0.00 | 0.00 | 0.00 | 98 | 914.1 |
| 20260506130253 | 64 | 90 | 3.0 | 5.0 | 0.00 | 0.00 | 0.00 | 98 | 914.1 |
| 20260506125955 | 64 | 88 | 2.0 | 7.0 | 0.00 | 0.00 | 0.00 | 98 | 914.1 |
| 20260506125753 | 64 | 99 | 2.0 | 5.0 | 0.00 | 0.00 | 0.00 | 98 | 914.1 |
| 20260506125355 | 64 | 103 | 3.0 | 6.0 | 0.00 | 0.00 | 0.00 | 98 | 914.1 |
| 20260506125256 | 64 | 115 | 2.0 | 5.0 | 0.00 | 0.00 | 0.00 | 98 | 914.1 |
| 20260506124755 | 64 | 61 | 0.0 | 4.0 | 0.00 | 0.00 | 0.00 | 98 | 914.1 |
| 20260506124753 | 64 | 64 | 0.0 | 4.0 | 0.00 | 0.00 | 0.00 | 98 | 914.1 |
| 20260506124253 | 64 | 71 | 4.0 | 6.0 | 0.00 | 0.00 | 0.00 | 98 | 914.0 |
| 20260506124155 | 64 | 69 | 3.0 | 6.0 | 0.00 | 0.00 | 0.00 | 98 | 914.0 |
| 20260506123753 | 64 | 52 | 3.0 | 6.0 | 0.00 | 0.00 | 0.00 | 98 | 914.0 |